createdAt,value
2023-04-01T00:01:29.307Z,76.33
2023-04-01T00:03:57.305Z,76.37
2023-04-01T00:06:24.716Z,75.97
2023-04-01T00:08:51.541Z,76.24
2023-04-01T00:11:20.491Z,76.54
2023-04-01T00:13:48.243Z,76.52
2023-04-01T00:16:21.788Z,76.66
2023-04-01T00:18:50.489Z,76.94
2023-04-01T00:21:18.292Z,76.80
2023-04-01T00:23:45.011Z,76.75
2023-04-01T00:26:13.546Z,76.78
2023-04-01T00:28:41.273Z,76.55
2023-04-01T00:31:09.281Z,76.92
2023-04-01T00:33:36.859Z,77.14
2023-04-01T00:36:12.769Z,76.82
2023-04-01T00:38:39.931Z,76.84
2023-04-01T00:41:07.554Z,77.10
2023-04-01T00:43:35.702Z,76.52
2023-04-01T00:46:02.504Z,76.44
2023-04-01T00:48:31.956Z,76.47
2023-04-01T00:51:05.957Z,77.13
2023-04-01T00:53:34.434Z,76.96
2023-04-01T00:56:07.558Z,77.08
2023-04-01T00:58:36.931Z,77.08
2023-04-01T01:01:04.009Z,77.02
2023-04-01T01:03:30.978Z,77.72
2023-04-01T01:06:10.908Z,77.11
2023-04-01T01:09:25.918Z,76.72
2023-04-01T01:12:10.920Z,77.00
2023-04-01T01:14:46.932Z,76.69
2023-04-01T01:17:25.271Z,76.61
2023-04-01T01:20:29.230Z,76.83
2023-04-01T01:23:39.430Z,77.16
2023-04-01T01:26:27.526Z,77.09
2023-04-01T01:29:15.139Z,77.20
2023-04-01T01:31:58.745Z,77.27
2023-04-01T01:34:37.188Z,77.30
2023-04-01T01:37:08.391Z,77.19
2023-04-01T01:39:37.282Z,77.59
2023-04-01T01:42:07.275Z,77.22
2023-04-01T01:44:34.762Z,77.10
2023-04-01T01:47:02.619Z,77.26
2023-04-01T01:49:31.560Z,77.24
2023-04-01T01:51:58.726Z,77.50
2023-04-01T01:54:25.828Z,78.35
2023-04-01T01:56:58.471Z,78.88
2023-04-01T01:59:26.018Z,79.58
2023-04-01T02:01:56.009Z,80.14
2023-04-01T02:04:23.848Z,79.84
2023-04-01T02:07:01.929Z,79.76
2023-04-01T02:09:30.157Z,79.53
2023-04-01T02:11:59.072Z,79.60
2023-04-01T02:14:28.305Z,80.03
2023-04-01T02:16:58.626Z,79.78
2023-04-01T02:19:29.211Z,79.79
2023-04-01T02:21:59.085Z,79.51
2023-04-01T02:24:27.842Z,80.06
2023-04-01T02:26:54.808Z,79.99
2023-04-01T02:29:23.221Z,80.33
2023-04-01T02:31:51.551Z,80.77
2023-04-01T02:34:18.598Z,80.89
2023-04-01T02:36:45.413Z,80.30
2023-04-01T02:39:12.587Z,80.35
2023-04-01T02:41:43.873Z,79.89
2023-04-01T02:44:12.177Z,79.70
2023-04-01T02:46:39.881Z,79.88
2023-04-01T02:49:07.015Z,79.90
2023-04-01T02:51:34.254Z,80.00
2023-04-01T02:54:01.183Z,79.43
2023-04-01T02:56:28.753Z,79.47
2023-04-01T02:58:55.465Z,79.44
2023-04-01T03:01:22.643Z,79.49
2023-04-01T03:03:49.482Z,79.16
2023-04-01T03:06:17.306Z,78.81
2023-04-01T03:08:44.797Z,78.67
2023-04-01T03:11:12.200Z,78.52
2023-04-01T03:13:39.120Z,78.76
2023-04-01T03:16:06.174Z,78.86
2023-04-01T03:18:32.955Z,78.93
2023-04-01T03:21:17.154Z,78.60
2023-04-01T03:23:44.159Z,78.71
2023-04-01T03:26:11.096Z,78.69
2023-04-01T03:28:38.087Z,79.03
2023-04-01T03:31:05.028Z,78.82
2023-04-01T03:33:39.080Z,78.71
2023-04-01T03:36:07.724Z,78.15
2023-04-01T03:38:35.831Z,78.08
2023-04-01T03:41:02.715Z,78.38
2023-04-01T03:43:30.181Z,78.64
2023-04-01T03:45:59.101Z,78.52
2023-04-01T03:48:27.002Z,78.50
2023-04-01T03:50:54.188Z,78.36
2023-04-01T03:53:21.512Z,78.26
2023-04-01T03:55:48.904Z,78.24
2023-04-01T03:58:16.425Z,78.18
2023-04-01T04:00:43.192Z,78.06
2023-04-01T04:03:10.865Z,77.42
2023-04-01T04:05:38.173Z,77.80
2023-04-01T04:08:05.130Z,77.85
2023-04-01T04:10:32.446Z,77.72
2023-04-01T04:12:59.191Z,77.60
2023-04-01T04:15:29.011Z,77.83
2023-04-01T04:17:55.977Z,77.91
2023-04-01T04:20:23.001Z,77.35
2023-04-01T04:22:49.858Z,77.42
2023-04-01T04:25:16.788Z,77.12
2023-04-01T04:27:44.193Z,76.98
2023-04-01T04:30:13.383Z,76.71
2023-04-01T04:32:41.901Z,76.62
2023-04-01T04:35:09.530Z,76.57
2023-04-01T04:37:36.293Z,76.36
2023-04-01T04:40:03.068Z,75.99
2023-04-01T04:42:30.895Z,75.93
2023-04-01T04:45:02.962Z,76.53
2023-04-01T04:47:30.652Z,76.59
2023-04-01T04:49:57.393Z,76.29
2023-04-01T04:52:24.456Z,76.90
2023-04-01T04:54:51.342Z,76.89
2023-04-01T04:57:18.314Z,76.65
2023-04-01T04:59:52.109Z,76.60
2023-04-01T05:02:38.047Z,76.44
2023-04-01T05:05:05.459Z,76.51
2023-04-01T05:07:32.395Z,76.80
2023-04-01T05:09:59.274Z,76.86
2023-04-01T05:12:27.896Z,76.87
2023-04-01T05:15:02.698Z,77.05
2023-04-01T05:17:30.487Z,76.91
2023-04-01T05:19:58.170Z,77.17
2023-04-01T05:22:25.919Z,76.61
2023-04-01T05:24:53.223Z,76.59
2023-04-01T05:27:21.201Z,76.75
2023-04-01T05:29:47.973Z,76.32
2023-04-01T05:32:37.781Z,76.21
2023-04-01T05:35:04.941Z,76.82
2023-04-01T05:37:31.743Z,76.96
2023-04-01T05:39:59.805Z,77.13
2023-04-01T05:42:27.029Z,76.88
2023-04-01T05:44:54.054Z,76.86
2023-04-01T05:47:39.130Z,77.13
2023-04-01T05:50:06.484Z,76.59
2023-04-01T05:52:33.394Z,76.42
2023-04-01T05:55:01.470Z,77.00
2023-04-01T05:57:28.409Z,76.64
2023-04-01T05:59:55.246Z,76.57
2023-04-01T06:02:22.430Z,75.92
2023-04-01T06:04:49.447Z,76.00
2023-04-01T06:07:18.650Z,75.91
2023-04-01T06:09:46.345Z,75.81
2023-04-01T06:12:22.486Z,75.59
2023-04-01T06:15:05.395Z,75.76
2023-04-01T06:17:53.862Z,75.32
2023-04-01T06:20:31.539Z,74.80
2023-04-01T06:23:16.793Z,74.15
2023-04-01T06:25:56.566Z,73.46
2023-04-01T06:28:33.512Z,73.48
2023-04-01T06:31:18.401Z,72.85
2023-04-01T06:33:57.897Z,73.26
2023-04-01T06:36:47.259Z,72.53
2023-04-01T06:39:38.428Z,72.22
2023-04-01T06:42:42.413Z,72.51
2023-04-01T06:45:38.517Z,72.02
2023-04-01T06:48:46.599Z,71.55
2023-04-01T06:51:52.851Z,71.83
2023-04-01T06:54:53.529Z,71.80
2023-04-01T06:57:51.061Z,72.07
2023-04-01T07:00:42.399Z,71.42
2023-04-01T07:03:21.520Z,71.59
2023-04-01T07:05:49.254Z,71.30
2023-04-01T07:08:22.897Z,71.74
2023-04-01T07:11:00.148Z,70.99
2023-04-01T07:13:54.613Z,70.77
2023-04-01T07:16:41.492Z,71.19
2023-04-01T07:19:30.922Z,70.95
2023-04-01T07:22:31.867Z,71.00
2023-04-01T07:25:22.736Z,71.21
2023-04-01T07:28:06.358Z,71.51
2023-04-01T07:30:46.602Z,70.62
2023-04-01T07:33:18.446Z,70.59
2023-04-01T07:35:56.902Z,71.21
2023-04-01T07:38:48.574Z,70.95
2023-04-01T07:41:33.533Z,71.05
2023-04-01T07:44:18.264Z,71.06
2023-04-01T07:46:57.344Z,71.39
2023-04-01T07:49:40.304Z,71.92
2023-04-01T07:52:30.660Z,71.95
2023-04-01T07:55:17.398Z,71.57
2023-04-01T07:57:54.082Z,71.51
2023-04-01T08:00:33.196Z,71.03
2023-04-01T08:03:13.944Z,71.10
2023-04-01T08:05:50.892Z,71.16
2023-04-01T08:08:30.474Z,70.83
2023-04-01T08:12:03.504Z,70.30
2023-04-01T08:15:14.778Z,70.72
2023-04-01T08:18:28.732Z,70.62
2023-04-01T08:21:16.625Z,71.00
2023-04-01T08:23:48.474Z,70.54
2023-04-01T08:26:22.267Z,70.38
2023-04-01T08:29:13.562Z,71.30
2023-04-01T08:31:54.906Z,71.70
2023-04-01T08:34:25.866Z,71.22
2023-04-01T08:37:02.219Z,71.74
2023-04-01T08:39:41.081Z,71.80
2023-04-01T08:42:36.059Z,70.70
2023-04-01T08:45:18.832Z,71.70
2023-04-01T08:48:38.866Z,74.39
2023-04-01T08:51:23.803Z,75.62
2023-04-01T08:54:30.655Z,77.31
2023-04-01T08:57:12.227Z,79.17
2023-04-01T09:00:20.802Z,79.16
2023-04-01T09:03:26.181Z,79.67
2023-04-01T09:06:13.961Z,78.28
2023-04-01T09:08:57.108Z,77.88
2023-04-01T09:12:01.579Z,78.33
2023-04-01T09:14:46.929Z,78.24
2023-04-01T09:17:25.844Z,78.28
2023-04-01T09:20:19.257Z,78.47
2023-04-01T09:23:12.688Z,78.28
2023-04-01T09:26:05.187Z,77.25
2023-04-01T09:28:43.934Z,76.87
2023-04-01T09:31:25.967Z,75.40
2023-04-01T09:34:37.311Z,75.50
2023-04-01T09:37:11.182Z,75.54
2023-04-01T09:39:39.681Z,75.49
2023-04-01T09:42:30.446Z,75.16
2023-04-01T09:45:18.437Z,74.71
2023-04-01T09:48:04.056Z,73.27
2023-04-01T09:50:44.124Z,73.29
2023-04-01T09:53:16.752Z,73.44
2023-04-01T09:56:09.002Z,73.97
2023-04-01T09:59:05.503Z,74.79
2023-04-01T10:02:19.442Z,73.90
2023-04-01T10:04:52.333Z,72.32
2023-04-01T10:07:34.604Z,72.51
2023-04-01T10:10:20.126Z,72.32
2023-04-01T10:13:14.742Z,71.55
2023-04-01T10:16:11.940Z,71.74
2023-04-01T10:19:02.317Z,71.91
2023-04-01T10:21:47.525Z,71.14
2023-04-01T10:24:48.852Z,71.34
2023-04-01T10:27:37.030Z,71.97
2023-04-01T10:30:06.669Z,70.79
2023-04-01T10:32:57.155Z,71.55
2023-04-01T10:35:50.584Z,69.78
2023-04-01T10:38:39.350Z,69.82
2023-04-01T10:41:21.355Z,70.95
2023-04-01T10:44:50.592Z,69.34
2023-04-01T10:47:41.126Z,69.56
2023-04-01T10:50:36.621Z,70.93
2023-04-01T10:53:31.456Z,71.71
2023-04-01T10:56:39.120Z,72.61
2023-04-01T10:59:46.498Z,71.95
2023-04-01T11:03:04.417Z,72.50
2023-04-01T11:06:09.242Z,73.32
2023-04-01T11:09:25.213Z,71.77
2023-04-01T11:12:05.008Z,70.56
2023-04-01T11:14:35.985Z,70.54
2023-04-01T11:17:16.733Z,69.50
2023-04-01T11:22:59.293Z,68.63
2023-04-01T11:25:50.975Z,68.73
2023-04-01T11:28:54.906Z,69.16
2023-04-01T11:31:31.669Z,68.85
2023-04-01T11:34:30.444Z,67.94
2023-04-01T11:37:28.663Z,67.66
2023-04-01T11:40:34.135Z,66.67
2023-04-01T11:43:33.936Z,66.67
2023-04-01T11:46:32.462Z,66.97
2023-04-01T11:49:17.558Z,66.37
2023-04-01T11:52:37.681Z,66.09
2023-04-01T11:55:16.228Z,65.84
2023-04-01T11:58:01.586Z,66.07
2023-04-01T12:00:54.447Z,65.98
2023-04-01T12:03:43.263Z,65.81
2023-04-01T12:06:40.893Z,66.75
2023-04-01T12:09:25.837Z,67.39
2023-04-01T12:12:07.840Z,68.00
2023-04-01T12:15:02.333Z,69.74
2023-04-01T12:17:42.862Z,70.31
2023-04-01T12:20:34.793Z,69.92
2023-04-01T12:23:10.525Z,69.91
2023-04-01T12:25:57.437Z,69.99
2023-04-01T12:28:42.984Z,68.97
2023-04-01T12:31:19.074Z,69.04
2023-04-01T12:34:27.482Z,68.66
2023-04-01T12:37:16.433Z,70.55
2023-04-01T12:39:57.304Z,69.53
2023-04-01T12:42:39.353Z,70.68
2023-04-01T12:45:35.035Z,70.11
2023-04-01T12:48:10.275Z,68.72
2023-04-01T12:51:13.724Z,68.26
2023-04-01T12:54:08.511Z,68.00
2023-04-01T12:57:09.642Z,67.10
2023-04-01T12:59:55.806Z,66.87
2023-04-01T13:02:29.300Z,65.30
2023-04-01T13:05:14.937Z,65.27
2023-04-01T13:08:01.465Z,64.49
2023-04-01T13:10:51.630Z,65.33
2023-04-01T13:13:18.303Z,65.17
2023-04-01T13:15:51.458Z,65.54
2023-04-01T13:19:02.386Z,65.84
2023-04-01T13:21:48.002Z,65.96
2023-04-01T13:24:41.338Z,65.34
2023-04-01T13:27:50.497Z,67.02
2023-04-01T13:30:34.813Z,68.54
2023-04-01T13:33:10.795Z,67.34
2023-04-01T13:35:46.315Z,68.04
2023-04-01T13:38:22.034Z,67.79
2023-04-01T13:41:04.185Z,67.37
2023-04-01T13:43:33.534Z,66.07
2023-04-01T13:46:03.305Z,66.24
2023-04-01T13:49:00.681Z,65.93
2023-04-01T13:51:36.549Z,65.38
2023-04-01T13:54:16.703Z,65.65
2023-04-01T13:57:06.564Z,65.95
2023-04-01T13:59:57.770Z,65.61
2023-04-01T14:02:43.641Z,65.43
2023-04-01T14:05:41.984Z,65.99
2023-04-01T14:08:18.733Z,68.10
2023-04-01T14:11:16.996Z,69.79
2023-04-01T14:13:53.717Z,69.95
2023-04-01T14:16:49.435Z,69.23
2023-04-01T14:19:30.035Z,68.83
2023-04-01T14:22:12.160Z,69.06
2023-04-01T14:24:41.886Z,68.49
2023-04-01T14:27:17.769Z,68.29
2023-04-01T14:30:09.633Z,67.63
2023-04-01T14:32:43.490Z,68.37
2023-04-01T14:35:39.443Z,68.98
2023-04-01T14:38:44.031Z,69.70
2023-04-01T14:41:31.651Z,71.29
2023-04-01T14:44:19.437Z,71.50
2023-04-01T14:47:14.459Z,72.95
2023-04-01T14:49:44.085Z,73.94
2023-04-01T14:52:32.046Z,74.72
2023-04-01T14:55:00.066Z,74.98
2023-04-01T14:57:30.167Z,75.15
2023-04-01T15:00:18.407Z,75.78
2023-04-01T15:03:04.877Z,75.32
2023-04-01T15:05:51.638Z,76.49
2023-04-01T15:08:31.364Z,75.10
2023-04-01T15:11:01.423Z,74.46
2023-04-01T15:13:45.942Z,73.79
2023-04-01T15:16:54.402Z,72.99
2023-04-01T15:19:30.435Z,72.48
2023-04-01T15:22:19.169Z,73.20
2023-04-01T15:24:49.642Z,71.71
2023-04-01T15:27:18.846Z,72.12
2023-04-01T15:30:05.994Z,72.17
2023-04-01T15:32:51.647Z,71.37
2023-04-01T15:35:42.892Z,71.75
2023-04-01T15:38:44.779Z,71.78
2023-04-01T15:41:17.144Z,71.86
2023-04-01T15:43:53.238Z,70.15
2023-04-01T15:46:26.171Z,71.09
2023-04-01T15:49:14.450Z,70.78
2023-04-01T15:52:00.381Z,71.15
2023-04-01T15:54:48.701Z,70.73
2023-04-01T15:57:24.935Z,71.24
2023-04-01T15:59:56.511Z,70.95
2023-04-01T16:02:32.159Z,70.80
2023-04-01T16:05:11.476Z,71.16
2023-04-01T16:07:53.460Z,70.38
2023-04-01T16:10:36.614Z,70.86
2023-04-01T16:13:21.776Z,70.37
2023-04-01T16:15:56.077Z,69.20
2023-04-01T16:18:44.875Z,69.25
2023-04-01T16:21:43.205Z,69.19
2023-04-01T16:24:33.626Z,68.90
2023-04-01T16:27:26.678Z,69.16
2023-04-01T16:29:59.868Z,68.94
2023-04-01T16:32:39.854Z,68.71
2023-04-01T16:35:15.905Z,68.35
2023-04-01T16:38:01.616Z,68.68
2023-04-01T16:40:42.784Z,68.17
2023-04-01T16:43:17.604Z,68.70
2023-04-01T16:45:59.364Z,68.76
2023-04-01T16:48:37.634Z,68.84
2023-04-01T16:51:14.461Z,69.40
2023-04-01T16:53:48.925Z,70.83
2023-04-01T16:56:23.306Z,71.36
2023-04-01T16:59:18.504Z,72.57
2023-04-01T17:01:58.473Z,73.81
2023-04-01T17:04:34.140Z,74.35
2023-04-01T17:07:23.560Z,74.63
2023-04-01T17:10:12.153Z,73.95
2023-04-01T17:12:48.505Z,74.39
2023-04-01T17:15:40.711Z,74.11
2023-04-01T17:18:18.265Z,74.09
2023-04-01T17:20:49.058Z,75.12
2023-04-01T17:23:20.380Z,74.48
2023-04-01T17:25:58.025Z,73.40
2023-04-01T17:28:37.572Z,74.22
2023-04-01T17:31:07.598Z,73.53
2023-04-01T17:34:09.112Z,73.26
2023-04-01T17:36:58.009Z,72.51
2023-04-01T17:39:49.053Z,72.70
2023-04-01T17:42:17.514Z,73.00
2023-04-01T17:44:52.026Z,73.53
2023-04-01T17:47:24.945Z,73.18
2023-04-01T17:50:07.655Z,72.90
2023-04-01T17:52:48.804Z,72.40
2023-04-01T17:55:46.623Z,72.50
2023-04-01T17:58:41.717Z,71.84
2023-04-01T18:01:31.933Z,72.24
2023-04-01T18:04:27.780Z,71.48
2023-04-01T18:07:06.611Z,72.57
2023-04-01T18:09:42.505Z,73.42
2023-04-01T18:12:43.332Z,74.66
2023-04-01T18:15:29.597Z,76.03
2023-04-01T18:18:21.464Z,76.39
2023-04-01T18:21:05.204Z,76.79
2023-04-01T18:23:37.791Z,76.14
2023-04-01T18:26:24.259Z,76.27
2023-04-01T18:28:58.373Z,76.49
2023-04-01T18:31:27.772Z,76.35
2023-04-01T18:33:54.445Z,76.77
2023-04-01T18:36:43.263Z,76.49
2023-04-01T18:39:25.742Z,75.94
2023-04-01T18:42:09.629Z,76.21
2023-04-01T18:44:55.462Z,76.92
2023-04-01T18:48:01.781Z,76.84
2023-04-01T18:50:39.284Z,77.03
2023-04-01T18:53:16.566Z,77.67
2023-04-01T18:55:49.028Z,77.01
2023-04-01T18:58:49.924Z,77.15
2023-04-01T19:01:17.898Z,77.12
2023-04-01T19:04:06.261Z,77.20
2023-04-01T19:06:32.862Z,76.99
2023-04-01T19:09:17.755Z,76.89
2023-04-01T19:11:58.280Z,76.48
2023-04-01T19:14:54.768Z,75.92
2023-04-01T19:17:38.492Z,75.50
2023-04-01T19:20:29.248Z,76.00
2023-04-01T19:23:20.941Z,75.39
2023-04-01T19:25:51.228Z,75.32
2023-04-01T19:28:27.683Z,75.17
2023-04-01T19:30:57.673Z,75.56
2023-04-01T19:33:31.168Z,75.43
2023-04-01T19:36:19.631Z,75.56
2023-04-01T19:38:58.712Z,75.46
2023-04-01T19:41:34.849Z,75.32
2023-04-01T19:44:28.268Z,75.50
2023-04-01T19:47:17.713Z,75.56
2023-04-01T19:49:53.633Z,75.81
2023-04-01T19:52:31.664Z,75.86
2023-04-01T19:55:00.700Z,75.96
2023-04-01T19:57:52.601Z,76.58
2023-04-01T20:00:26.119Z,76.82
2023-04-01T20:03:05.511Z,77.00
2023-04-01T20:05:41.397Z,77.18
2023-04-01T20:08:09.410Z,77.44
2023-04-01T20:10:44.868Z,77.10
2023-04-01T20:13:26.686Z,76.92
2023-04-01T20:16:01.511Z,76.70
2023-04-01T20:18:49.927Z,76.75
2023-04-01T20:21:16.520Z,76.72
2023-04-01T20:23:46.572Z,76.86
2023-04-01T20:26:14.561Z,76.42
2023-04-01T20:29:12.047Z,76.60
2023-04-01T20:31:42.645Z,76.47
2023-04-01T20:34:15.486Z,76.36
2023-04-01T20:36:52.069Z,76.00
2023-04-01T20:39:47.005Z,76.29
2023-04-01T20:42:13.994Z,75.57
2023-04-01T20:44:50.294Z,75.67
2023-04-01T20:47:32.385Z,75.60
2023-04-01T20:50:31.905Z,75.58
2023-04-01T20:52:58.967Z,75.33
2023-04-01T20:55:40.568Z,74.92
2023-04-01T20:58:17.165Z,75.15
2023-04-01T21:01:11.289Z,75.08
2023-04-01T21:03:54.043Z,74.92
2023-04-01T21:06:39.666Z,74.95
2023-04-01T21:09:30.465Z,75.20
2023-04-01T21:12:12.707Z,74.96
2023-04-01T21:15:00.761Z,75.08
2023-04-01T21:17:31.778Z,75.20
2023-04-01T21:20:05.404Z,74.86
2023-04-01T21:22:47.630Z,75.21
2023-04-01T21:25:23.748Z,75.11
2023-04-01T21:27:50.405Z,75.34
2023-04-01T21:30:50.496Z,75.32
2023-04-01T21:36:42.413Z,75.43
2023-04-01T21:39:25.100Z,75.09
2023-04-01T21:42:24.918Z,75.08
2023-04-01T21:45:28.308Z,75.35
2023-04-01T21:48:22.237Z,75.60
2023-04-01T21:50:58.097Z,75.22
2023-04-01T21:53:53.993Z,75.34
2023-04-01T21:56:32.911Z,75.71
2023-04-01T21:59:19.743Z,74.90
2023-04-01T22:02:07.563Z,75.32
2023-04-01T22:04:49.792Z,75.46
2023-04-01T22:07:22.412Z,75.44
2023-04-01T22:10:01.447Z,75.11
2023-04-01T22:13:01.739Z,75.24
2023-04-01T22:15:51.708Z,74.81
2023-04-01T22:18:35.931Z,74.35
2023-04-01T22:21:06.457Z,74.46
2023-04-01T22:23:59.720Z,74.68
2023-04-01T22:27:00.597Z,74.35
2023-04-01T22:29:53.969Z,74.83
2023-04-01T22:32:26.025Z,74.28
2023-04-01T22:35:04.068Z,74.42
2023-04-01T22:37:52.692Z,73.96
2023-04-01T22:40:27.351Z,74.09
2023-04-01T22:42:59.282Z,74.02
2023-04-01T22:46:04.277Z,74.10
2023-04-01T22:48:42.179Z,74.27
2023-04-01T22:51:20.732Z,73.64
2023-04-01T22:53:56.414Z,74.08
2023-04-01T22:56:31.860Z,74.01
2023-04-01T22:59:17.167Z,73.85
2023-04-01T23:01:58.101Z,73.47
2023-04-01T23:04:28.169Z,73.42
2023-04-01T23:06:59.474Z,73.33
2023-04-01T23:09:31.287Z,73.73
2023-04-01T23:12:06.840Z,73.68
2023-04-01T23:14:47.978Z,73.64
2023-04-01T23:17:24.384Z,73.09
2023-04-01T23:20:06.999Z,73.39
2023-04-01T23:22:56.958Z,73.38
2023-04-01T23:25:51.266Z,73.60
2023-04-01T23:28:27.087Z,73.84
2023-04-01T23:30:53.885Z,73.47
2023-04-01T23:33:20.694Z,73.90
2023-04-01T23:36:13.168Z,73.87
2023-04-01T23:38:42.838Z,73.96
2023-04-01T23:41:21.615Z,74.16
2023-04-01T23:43:56.088Z,73.61
2023-04-01T23:46:23.013Z,73.96
2023-04-01T23:48:50.328Z,73.90
2023-04-01T23:51:26.243Z,73.93
2023-04-01T23:54:14.705Z,73.58
2023-04-01T23:56:47.751Z,73.70
2023-04-01T23:59:19.768Z,73.46
